Time;durP1;ratioP1;P1;durP2;ratioP2;P2;SDS_P1;SDS_P2;PMS_P1;PMS_P2;Temp;Humidity;BMP_temperature;BMP_pressure;BME280_temperature;BME280_humidity;BME280_pressure;Samples;Min_cycle;Max_cycle;Signal;HPM_P1;HPM_P2
2022/10/31 00:00:59;;;;;;;;;;;;;;;;;;4954985;28;20311;-57
2022/10/31 00:03:26;;;;;;;;;;;;;;;;;;4959480;28;19922;-57
2022/10/31 00:05:51;;;;;;;;;;;;;;;;;;4957946;28;19929;-57
2022/10/31 00:08:17;;;;;;;;;;;;;;;;;;4956630;28;19931;-57
2022/10/31 00:10:43;;;;;;;;;;;;;;;;;;4960733;28;19918;-57
2022/10/31 00:13:09;;;;;;;;;;;;;;;;;;4964112;28;20284;-57
2022/10/31 00:15:35;;;;;;;;;;;;;;;;;;4956751;28;19919;-57
2022/10/31 00:18:00;;;;;;;;;;;;;;;;;;4957803;28;20431;-57
2022/10/31 00:20:26;;;;;;;;;;;;;;;;;;4958920;28;19929;-57
2022/10/31 00:22:51;;;;;;;;;;;;;;;;;;4961518;28;20026;-57
2022/10/31 00:25:16;;;;;;;;;;;;;;;;;;4961090;28;19918;-57
2022/10/31 00:27:42;;;;;;;;;;;;;;;;;;4963172;28;20029;-57
2022/10/31 00:30:07;;;;;;;;;;;;;;;;;;4967931;28;19918;-58
2022/10/31 00:32:32;;;;;;;;;;;;;;;;;;4965252;28;20406;-57
2022/10/31 00:34:58;;;;;;;;;;;;;;;;;;4975078;28;19925;-57
2022/10/31 00:37:23;;;;;;;;;;;;;;;;;;4964703;28;19919;-57
2022/10/31 00:39:49;;;;;;;;;;;;;;;;;;4963554;28;19927;-58
2022/10/31 00:42:14;;;;;;;;;;;;;;;;;;4949245;28;19936;-57
2022/10/31 00:44:40;;;;;;;;;;;;;;;;;;4949065;28;19922;-57
2022/10/31 00:47:05;;;;;;;;;;;;;;;;;;4951432;28;20008;-57
2022/10/31 00:49:30;;;;;;;;;;;;;;;;;;4953483;28;19929;-57
2022/10/31 00:51:55;;;;;;;;;;;;;;;;;;4951504;28;20001;-57
2022/10/31 00:54:21;;;;;;;;;;;;;;;;;;4952153;28;19919;-57
2022/10/31 00:56:46;;;;;;;;;;;;;;;;;;4957005;28;19946;-57
2022/10/31 00:59:11;;;;;;;;;;;;;;;;;;4955975;28;19929;-57
2022/10/31 01:01:36;;;;;;;;;;;;;;;;;;4957489;28;20364;-57
2022/10/31 01:04:02;;;;;;;;;;;;;;;;;;4961043;28;19929;-57
2022/10/31 01:06:27;;;;;;;;;;;;;;;;;;4961894;28;20351;-57
2022/10/31 01:08:52;;;;;;;;;;;;;;;;;;4982105;28;19971;-57
2022/10/31 01:11:19;;;;;;;;;;;;;;;;;;4966745;28;20295;-56
2022/10/31 01:13:44;;;;;;;;;;;;;;;;;;4965619;28;20030;-58
2022/10/31 01:16:11;;;;;;;;;;;;;;;;;;4962975;28;20008;-58
2022/10/31 01:18:36;;;;;;;;;;;;;;;;;;5003578;28;20010;-56
2022/10/31 01:21:04;;;;;;;;;;;;;;;;;;4967460;28;20407;-56
2022/10/31 01:23:30;;;;;;;;;;;;;;;;;;4961187;28;19933;-57
2022/10/31 01:26:01;;;;;;;;;;;;;;;;;;4974650;28;19922;-57
2022/10/31 01:28:26;;;;;;;;;;;;;;;;;;4993451;28;20012;-56
2022/10/31 01:30:52;;;;;;;;;;;;;;;;;;4970249;28;20128;-57
2022/10/31 01:33:17;;;;;;;;;;;;;;;;;;4975174;28;20319;-57
2022/10/31 01:35:42;;;;;;;;;;;;;;;;;;4981385;28;19919;-57
2022/10/31 01:38:08;;;;;;;;;;;;;;;;;;4969596;28;19921;-57
2022/10/31 01:40:33;;;;;;;;;;;;;;;;;;4967557;28;19925;-57
2022/10/31 01:42:58;;;;;;;;;;;;;;;;;;4980786;28;19929;-57
2022/10/31 01:45:23;;;;;;;;;;;;;;;;;;4985135;28;19918;-57
2022/10/31 01:47:49;;;;;;;;;;;;;;;;;;4964036;28;20438;-57
2022/10/31 01:50:28;;;;;;;;;;;;;;;;;;4986345;28;19937;-56
2022/10/31 01:52:53;;;;;;;;;;;;;;;;;;4990313;28;20009;-57
2022/10/31 01:55:28;;;;;;;;;;;;;;;;;;4966170;28;20063;-58
2022/10/31 01:57:54;;;;;;;;;;;;;;;;;;4967541;28;20306;-57
2022/10/31 02:00:20;;;;;;;;;;;;;;;;;;4970947;28;19922;-57
2022/10/31 02:02:46;;;;;;;;;;;;;;;;;;4982853;28;20387;-57
2022/10/31 02:05:18;;;;;;;;;;;;;;;;;;4988915;28;19927;-56
2022/10/31 02:08:03;;;;;;;;;;;;;;;;;;4964507;28;19918;-56
2022/10/31 02:10:31;;;;;;;;;;;;;;;;;;5000824;28;20367;-56
2022/10/31 02:12:58;;;;;;;;;;;;;;;;;;4974468;28;20010;-57
2022/10/31 02:15:23;;;;;;;;;;;;;;;;;;4974541;28;19924;-57
2022/10/31 02:17:48;;;;;;;;;;;;;;;;;;4958367;28;19918;-57
2022/10/31 02:20:16;;;;;;;;;;;;;;;;;;4962072;28;19932;-57
2022/10/31 02:22:59;;;;;;;;;;;;;;;;;;4966103;28;19926;-57
2022/10/31 02:25:30;;;;;;;;;;;;;;;;;;4956548;28;20332;-57
2022/10/31 02:28:14;;;;;;;;;;;;;;;;;;4960938;28;19917;-57
2022/10/31 02:30:55;;;;;;;;;;;;;;;;;;4960757;28;19930;-57
2022/10/31 02:33:23;;;;;;;;;;;;;;;;;;4959903;28;20633;-57
2022/10/31 02:36:08;;;;;;;;;;;;;;;;;;4961093;28;19922;-57
2022/10/31 02:38:37;;;;;;;;;;;;;;;;;;4961588;28;19919;-57
2022/10/31 02:41:02;;;;;;;;;;;;;;;;;;4961114;28;19918;-58
2022/10/31 02:43:34;;;;;;;;;;;;;;;;;;4958523;28;20298;-56
2022/10/31 02:46:07;;;;;;;;;;;;;;;;;;4957126;28;19926;-57
2022/10/31 02:48:35;;;;;;;;;;;;;;;;;;4961202;28;19918;-57
2022/10/31 02:51:01;;;;;;;;;;;;;;;;;;4958838;28;19925;-57
2022/10/31 02:53:31;;;;;;;;;;;;;;;;;;4957360;28;19964;-58
2022/10/31 02:55:58;;;;;;;;;;;;;;;;;;4954840;28;20426;-58
2022/10/31 02:58:26;;;;;;;;;;;;;;;;;;4954172;28;19919;-57
2022/10/31 03:00:57;;;;;;;;;;;;;;;;;;4957044;28;19954;-57
2022/10/31 03:03:22;;;;;;;;;;;;;;;;;;4961462;28;20411;-57
2022/10/31 03:05:56;;;;;;;;;;;;;;;;;;4963740;28;19926;-58
2022/10/31 03:08:29;;;;;;;;;;;;;;;;;;4963385;28;19933;-58
2022/10/31 03:10:57;;;;;;;;;;;;;;;;;;4956657;28;19918;-56
2022/10/31 03:13:49;;;;;;;;;;;;;;;;;;4955445;28;19913;-57
2022/10/31 03:16:17;;;;;;;;;;;;;;;;;;4964805;28;19926;-57
2022/10/31 03:18:46;;;;;;;;;;;;;;;;;;4967210;28;19918;-56
2022/10/31 03:21:12;;;;;;;;;;;;;;;;;;4964647;28;19961;-56
2022/10/31 03:23:37;;;;;;;;;;;;;;;;;;4967788;28;19977;-56
2022/10/31 03:26:05;;;;;;;;;;;;;;;;;;4960516;28;19918;-55
2022/10/31 03:28:34;;;;;;;;;;;;;;;;;;4964266;28;19926;-56
2022/10/31 03:31:01;;;;;;;;;;;;;;;;;;4967681;28;19918;-56
2022/10/31 03:33:28;;;;;;;;;;;;;;;;;;4968661;28;19975;-55
2022/10/31 03:35:55;;;;;;;;;;;;;;;;;;4959683;28;20009;-55
2022/10/31 03:38:21;;;;;;;;;;;;;;;;;;4966620;28;19918;-56
2022/10/31 03:40:49;;;;;;;;;;;;;;;;;;4961304;28;19979;-55
2022/10/31 03:43:16;;;;;;;;;;;;;;;;;;4959644;28;19964;-55
2022/10/31 03:45:43;;;;;;;;;;;;;;;;;;4964052;28;19921;-57
2022/10/31 03:48:09;;;;;;;;;;;;;;;;;;4961126;28;20280;-55
2022/10/31 03:50:39;;;;;;;;;;;;;;;;;;4967843;28;19921;-56
2022/10/31 03:53:09;;;;;;;;;;;;;;;;;;4968055;28;19983;-56
2022/10/31 03:55:40;;;;;;;;;;;;;;;;;;4960335;28;19915;-56
2022/10/31 03:58:10;;;;;;;;;;;;;;;;;;4965458;28;20628;-56
2022/10/31 04:00:38;;;;;;;;;;;;;;;;;;4958687;28;20380;-56
2022/10/31 04:03:11;;;;;;;;;;;;;;;;;;4959298;28;19998;-56
2022/10/31 04:05:37;;;;;;;;;;;;;;;;;;4974176;28;20434;-55
2022/10/31 04:08:04;;;;;;;;;;;;;;;;;;4957963;28;19919;-56
2022/10/31 04:10:30;;;;;;;;;;;;;;;;;;4966494;28;19917;-55
2022/10/31 04:12:58;;;;;;;;;;;;;;;;;;4957222;28;20384;-56
2022/10/31 04:15:25;;;;;;;;;;;;;;;;;;4954796;28;19980;-56
2022/10/31 04:17:53;;;;;;;;;;;;;;;;;;4965708;28;20078;-55
2022/10/31 04:20:18;;;;;;;;;;;;;;;;;;4963445;28;20605;-56
2022/10/31 04:22:44;;;;;;;;;;;;;;;;;;4970751;28;20025;-55
2022/10/31 04:25:09;;;;;;;;;;;;;;;;;;4972918;28;19917;-56
2022/10/31 04:27:34;;;;;;;;;;;;;;;;;;4966318;28;19919;-56
2022/10/31 04:30:00;;;;;;;;;;;;;;;;;;4970288;28;20597;-56
2022/10/31 04:32:25;;;;;;;;;;;;;;;;;;4971224;28;19957;-56
2022/10/31 04:34:51;;;;;;;;;;;;;;;;;;4970275;28;20388;-56
2022/10/31 04:37:16;;;;;;;;;;;;;;;;;;4975570;28;19924;-55
2022/10/31 04:39:41;;;;;;;;;;;;;;;;;;4976287;28;19919;-55
2022/10/31 04:42:06;;;;;;;;;;;;;;;;;;4961258;28;20021;-56
2022/10/31 04:44:32;;;;;;;;;;;;;;;;;;4966718;28;20307;-56
2022/10/31 04:46:57;;;;;;;;;;;;;;;;;;4965386;28;19918;-55
2022/10/31 04:49:22;;;;;;;;;;;;;;;;;;4965785;28;19919;-55
2022/10/31 04:51:48;;;;;;;;;;;;;;;;;;4965689;28;20394;-56
2022/10/31 04:54:13;;;;;;;;;;;;;;;;;;4964195;28;19918;-56
2022/10/31 04:56:38;;;;;;;;;;;;;;;;;;4956391;28;19919;-55
2022/10/31 04:59:03;;;;;;;;;;;;;;;;;;4964992;28;19918;-55
2022/10/31 05:01:29;;;;;;;;;;;;;;;;;;4968394;28;19926;-55
2022/10/31 05:03:54;;;;;;;;;;;;;;;;;;4967994;28;19928;-61
2022/10/31 05:06:19;;;;;;;;;;;;;;;;;;4974426;28;20013;-58
2022/10/31 05:08:44;;;;;;;;;;;;;;;;;;4965959;28;19939;-60
2022/10/31 05:11:10;;;;;;;;;;;;;;;;;;4960555;28;19922;-60
2022/10/31 05:13:36;;;;;;;;;;;;;;;;;;4959248;28;19922;-60
2022/10/31 05:16:01;;;;;;;;;;;;;;;;;;4966236;28;19926;-60
2022/10/31 05:18:26;;;;;;;;;;;;;;;;;;4963968;28;19919;-60
2022/10/31 05:20:52;;;;;;;;;;;;;;;;;;4961555;28;19985;-60
2022/10/31 05:23:17;;;;;;;;;;;;;;;;;;4967262;28;19930;-60
2022/10/31 05:25:42;;;;;;;;;;;;;;;;;;4969081;28;19918;-60
2022/10/31 05:28:08;;;;;;;;;;;;;;;;;;4971073;28;19918;-60
2022/10/31 05:30:33;;;;;;;;;;;;;;;;;;4973420;28;20303;-60
2022/10/31 05:32:59;;;;;;;;;;;;;;;;;;4966107;28;20280;-60
2022/10/31 05:35:29;;;;;;;;;;;;;;;;;;4966762;28;19922;-60
2022/10/31 05:37:54;;;;;;;;;;;;;;;;;;4971480;28;19973;-60
2022/10/31 05:40:20;;;;;;;;;;;;;;;;;;4961894;28;19975;-60
2022/10/31 05:42:46;;;;;;;;;;;;;;;;;;4968585;28;19964;-61
2022/10/31 05:45:13;;;;;;;;;;;;;;;;;;4966663;28;20383;-60
2022/10/31 05:47:38;;;;;;;;;;;;;;;;;;4962817;28;20394;-60
2022/10/31 05:50:04;;;;;;;;;;;;;;;;;;4967871;28;19917;-60
2022/10/31 05:52:29;;;;;;;;;;;;;;;;;;4963509;28;19919;-60
2022/10/31 05:54:54;;;;;;;;;;;;;;;;;;4969252;28;19917;-60
2022/10/31 05:57:20;;;;;;;;;;;;;;;;;;4964557;28;19921;-60
2022/10/31 05:59:45;;;;;;;;;;;;;;;;;;4973422;28;19919;-60
2022/10/31 06:02:10;;;;;;;;;;;;;;;;;;4967197;28;19945;-60
2022/10/31 06:04:35;;;;;;;;;;;;;;;;;;4970112;28;19926;-60
2022/10/31 06:07:01;;;;;;;;;;;;;;;;;;4967711;28;19922;-60
2022/10/31 06:09:26;;;;;;;;;;;;;;;;;;4962547;28;19941;-60
2022/10/31 06:11:51;;;;;;;;;;;;;;;;;;4965519;28;19922;-60
2022/10/31 06:14:16;;;;;;;;;;;;;;;;;;5003195;28;19917;-60
2022/10/31 06:16:42;;;;;;;;;;;;;;;;;;4967350;28;19918;-60
2022/10/31 06:19:07;;;;;;;;;;;;;;;;;;5018407;28;19925;-60
2022/10/31 06:21:32;;;;;;;;;;;;;;;;;;4967298;28;19918;-60
2022/10/31 06:23:57;;;;;;;;;;;;;;;;;;4971996;28;19999;-60
2022/10/31 06:26:23;;;;;;;;;;;;;;;;;;4965263;28;19929;-60
2022/10/31 06:28:48;;;;;;;;;;;;;;;;;;4958439;28;20419;-60
2022/10/31 06:31:13;;;;;;;;;;;;;;;;;;4965731;28;19922;-60
2022/10/31 06:33:40;;;;;;;;;;;;;;;;;;4964828;28;19924;-59
2022/10/31 06:36:06;;;;;;;;;;;;;;;;;;4976974;28;20001;-60
2022/10/31 06:38:31;;;;;;;;;;;;;;;;;;4961175;28;20001;-60
2022/10/31 06:40:56;;;;;;;;;;;;;;;;;;4964303;28;19918;-60
2022/10/31 06:43:22;;;;;;;;;;;;;;;;;;4969929;28;19926;-60
2022/10/31 06:45:47;;;;;;;;;;;;;;;;;;4962180;28;19924;-62
2022/10/31 06:48:12;;;;;;;;;;;;;;;;;;4963101;28;19958;-60
2022/10/31 06:50:37;;;;;;;;;;;;;;;;;;4968709;28;20454;-60
2022/10/31 06:53:03;;;;;;;;;;;;;;;;;;4965495;28;19960;-60
2022/10/31 06:55:28;;;;;;;;;;;;;;;;;;4965874;28;20388;-60
2022/10/31 06:57:56;;;;;;;;;;;;;;;;;;4968916;28;19922;-60
2022/10/31 07:00:22;;;;;;;;;;;;;;;;;;4973070;28;19957;-60
2022/10/31 07:02:54;;;;;;;;;;;;;;;;;;4969313;28;19972;-60
2022/10/31 07:05:20;;;;;;;;;;;;;;;;;;4969022;28;19968;-60
2022/10/31 07:07:46;;;;;;;;;;;;;;;;;;4977503;28;19928;-60
2022/10/31 07:10:11;;;;;;;;;;;;;;;;;;4976671;28;20016;-60
2022/10/31 07:12:36;;;;;;;;;;;;;;;;;;4978920;28;19942;-59
2022/10/31 07:15:01;;;;;;;;;;;;;;;;;;4971749;28;19914;-60
2022/10/31 07:17:27;;;;;;;;;;;;;;;;;;4978783;28;19983;-60
2022/10/31 07:19:52;;;;;;;;;;;;;;;;;;4981649;28;19921;-61
2022/10/31 07:22:17;;;;;;;;;;;;;;;;;;4974803;28;20130;-60
2022/10/31 07:24:42;;;;;;;;;;;;;;;;;;4975142;28;19926;-60
2022/10/31 07:27:08;;;;;;;;;;;;;;;;;;4979544;28;19975;-60
2022/10/31 07:29:33;;;;;;;;;;;;;;;;;;4968644;28;19937;-60
2022/10/31 07:31:58;;;;;;;;;;;;;;;;;;4973475;28;19967;-60
2022/10/31 07:34:23;;;;;;;;;;;;;;;;;;4971009;28;19918;-60
2022/10/31 07:36:50;;;;;;;;;;;;;;;;;;4990238;28;19918;-60
2022/10/31 07:39:16;;;;;;;;;;;;;;;;;;4970560;28;19914;-60
2022/10/31 07:41:41;;;;;;;;;;;;;;;;;;4969237;28;19922;-60
2022/10/31 07:44:06;;;;;;;;;;;;;;;;;;4966749;28;20410;-60
2022/10/31 07:46:31;;;;;;;;;;;;;;;;;;4973802;28;19928;-60
2022/10/31 07:48:57;;;;;;;;;;;;;;;;;;4967829;28;19914;-60
2022/10/31 07:51:23;;;;;;;;;;;;;;;;;;4965745;28;19914;-59
2022/10/31 07:53:49;;;;;;;;;;;;;;;;;;4973871;28;19918;-60
2022/10/31 07:56:14;;;;;;;;;;;;;;;;;;4973139;28;20280;-60
2022/10/31 07:58:39;;;;;;;;;;;;;;;;;;4984976;28;20000;-60
2022/10/31 08:01:04;;;;;;;;;;;;;;;;;;4979554;28;20445;-60
2022/10/31 08:03:30;;;;;;;;;;;;;;;;;;4971188;28;19922;-60
2022/10/31 08:05:56;;;;;;;;;;;;;;;;;;4968109;28;19937;-60
2022/10/31 08:08:23;;;;;;;;;;;;;;;;;;4971545;28;19918;-60
2022/10/31 08:10:49;;;;;;;;;;;;;;;;;;4978801;28;19975;-60
2022/10/31 08:13:14;;;;;;;;;;;;;;;;;;4971259;28;19956;-60
2022/10/31 08:15:41;;;;;;;;;;;;;;;;;;4975006;28;19914;-60
2022/10/31 08:18:09;;;;;;;;;;;;;;;;;;4980743;28;19918;-60
2022/10/31 08:20:34;;;;;;;;;;;;;;;;;;4972217;28;19914;-60
2022/10/31 08:23:01;;;;;;;;;;;;;;;;;;4977407;28;19928;-60
2022/10/31 08:25:28;;;;;;;;;;;;;;;;;;4970101;28;19914;-60
2022/10/31 08:27:54;;;;;;;;;;;;;;;;;;4978906;28;20112;-60
2022/10/31 08:30:20;;;;;;;;;;;;;;;;;;4970823;28;20423;-60
2022/10/31 08:32:45;;;;;;;;;;;;;;;;;;4974837;28;19929;-60
2022/10/31 08:35:11;;;;;;;;;;;;;;;;;;4980576;28;19957;-60
2022/10/31 08:37:36;;;;;;;;;;;;;;;;;;4967890;28;19921;-60
2022/10/31 08:40:02;;;;;;;;;;;;;;;;;;4969141;28;19914;-60
2022/10/31 08:42:27;;;;;;;;;;;;;;;;;;4969049;28;20005;-60
2022/10/31 08:44:52;;;;;;;;;;;;;;;;;;4968626;28;19915;-60
2022/10/31 08:47:17;;;;;;;;;;;;;;;;;;4966647;28;19918;-60
2022/10/31 08:49:43;;;;;;;;;;;;;;;;;;4970889;28;19918;-60
2022/10/31 08:52:08;;;;;;;;;;;;;;;;;;4969086;28;20411;-60
2022/10/31 08:54:33;;;;;;;;;;;;;;;;;;4977620;28;19920;-59
2022/10/31 08:56:59;;;;;;;;;;;;;;;;;;4972848;28;19921;-59
2022/10/31 08:59:24;;;;;;;;;;;;;;;;;;4970014;28;20288;-60
2022/10/31 09:01:49;;;;;;;;;;;;;;;;;;4972029;28;19922;-60
2022/10/31 09:04:15;;;;;;;;;;;;;;;;;;4968520;28;20312;-60
2022/10/31 09:06:40;;;;;;;;;;;;;;;;;;4967653;28;20391;-59
2022/10/31 09:09:05;;;;;;;;;;;;;;;;;;4969931;28;19980;-60
2022/10/31 09:11:31;;;;;;;;;;;;;;;;;;4971100;28;19922;-60
2022/10/31 09:13:56;;;;;;;;;;;;;;;;;;4967500;28;19918;-60
2022/10/31 09:16:21;;;;;;;;;;;;;;;;;;4966766;28;19924;-60
2022/10/31 09:18:46;;;;;;;;;;;;;;;;;;4972258;28;19968;-60
2022/10/31 09:21:12;;;;;;;;;;;;;;;;;;4969829;28;19944;-60
2022/10/31 09:23:37;;;;;;;;;;;;;;;;;;4976234;28;20116;-60
2022/10/31 09:26:03;;;;;;;;;;;;;;;;;;4969994;28;19964;-61
2022/10/31 09:28:28;;;;;;;;;;;;;;;;;;4973517;28;19926;-60
2022/10/31 09:30:54;;;;;;;;;;;;;;;;;;4973965;28;20403;-60
2022/10/31 09:33:20;;;;;;;;;;;;;;;;;;4970735;28;20327;-60
2022/10/31 09:35:45;;;;;;;;;;;;;;;;;;4968887;28;19918;-60
2022/10/31 09:38:10;;;;;;;;;;;;;;;;;;4967452;28;19925;-59
2022/10/31 09:40:40;;;;;;;;;;;;;;;;;;4968492;28;19964;-60
2022/10/31 09:43:05;;;;;;;;;;;;;;;;;;4966596;28;19969;-60
2022/10/31 09:45:30;;;;;;;;;;;;;;;;;;4971449;28;19960;-59
2022/10/31 09:47:58;;;;;;;;;;;;;;;;;;4970029;28;19926;-60
2022/10/31 09:50:31;;;;;;;;;;;;;;;;;;4970251;28;20379;-60
2022/10/31 09:53:03;;;;;;;;;;;;;;;;;;4965628;28;19918;-60
2022/10/31 09:55:36;;;;;;;;;;;;;;;;;;4966594;28;19925;-60
2022/10/31 09:58:02;;;;;;;;;;;;;;;;;;4965205;28;19929;-60
2022/10/31 10:00:27;;;;;;;;;;;;;;;;;;4967358;28;19918;-60
2022/10/31 10:03:09;;;;;;;;;;;;;;;;;;4969368;28;19930;-60
2022/10/31 10:05:51;;;;;;;;;;;;;;;;;;4968351;28;19918;-60
2022/10/31 10:08:18;;;;;;;;;;;;;;;;;;4966344;28;19922;-60
2022/10/31 10:10:59;;;;;;;;;;;;;;;;;;4975005;28;19918;-60
2022/10/31 10:13:31;;;;;;;;;;;;;;;;;;4976488;28;20304;-60
2022/10/31 10:16:14;;;;;;;;;;;;;;;;;;4969883;28;20303;-60
2022/10/31 10:18:55;;;;;;;;;;;;;;;;;;4966533;28;19999;-59
2022/10/31 10:21:20;;;;;;;;;;;;;;;;;;4972912;28;20386;-60
2022/10/31 10:23:54;;;;;;;;;;;;;;;;;;4968343;28;19930;-59
2022/10/31 10:26:21;;;;;;;;;;;;;;;;;;4966173;28;19961;-60
2022/10/31 10:28:54;;;;;;;;;;;;;;;;;;4974315;28;19925;-60
2022/10/31 10:31:21;;;;;;;;;;;;;;;;;;4972600;28;19925;-60
2022/10/31 10:33:55;;;;;;;;;;;;;;;;;;4967663;28;20005;-60
2022/10/31 10:36:41;;;;;;;;;;;;;;;;;;4964237;28;19957;-60
2022/10/31 10:39:25;;;;;;;;;;;;;;;;;;4962948;28;20000;-60
2022/10/31 10:47:37;;;;;;;;;;;;;;;;;;4968547;28;20438;-60
2022/10/31 10:50:05;;;;;;;;;;;;;;;;;;4969977;28;19929;-60
2022/10/31 10:52:46;;;;;;;;;;;;;;;;;;4966836;28;19940;-59
2022/10/31 10:55:30;;;;;;;;;;;;;;;;;;4968325;28;20395;-60
2022/10/31 10:57:55;;;;;;;;;;;;;;;;;;4964612;28;20391;-60
2022/10/31 11:00:22;;;;;;;;;;;;;;;;;;4967613;28;19922;-60
2022/10/31 11:02:47;;;;;;;;;;;;;;;;;;4965004;28;19922;-60
2022/10/31 11:05:17;;;;;;;;;;;;;;;;;;4965004;28;19987;-60
2022/10/31 11:07:43;;;;;;;;;;;;;;;;;;4968056;28;19954;-59
2022/10/31 11:10:13;;;;;;;;;;;;;;;;;;4969584;28;19946;-60
2022/10/31 11:12:39;;;;;;;;;;;;;;;;;;4964134;28;19918;-59
2022/10/31 11:15:17;;;;;;;;;;;;;;;;;;4967814;28;19984;-60
2022/10/31 11:17:48;;;;;;;;;;;;;;;;;;4969877;28;19918;-60
2022/10/31 11:20:13;;;;;;;;;;;;;;;;;;4965925;28;19925;-60
2022/10/31 11:22:38;;;;;;;;;;;;;;;;;;4965799;28;19918;-60
2022/10/31 11:25:19;;;;;;;;;;;;;;;;;;4968551;28;19949;-60
2022/10/31 11:27:44;;;;;;;;;;;;;;;;;;4968278;28;19918;-59
2022/10/31 11:30:12;;;;;;;;;;;;;;;;;;4971505;28;19918;-60
2022/10/31 11:32:43;;;;;;;;;;;;;;;;;;4962555;28;19922;-60
2022/10/31 11:35:11;;;;;;;;;;;;;;;;;;4977745;28;19918;-60
2022/10/31 11:37:40;;;;;;;;;;;;;;;;;;4966566;28;19918;-60
2022/10/31 11:40:06;;;;;;;;;;;;;;;;;;4966427;28;19961;-60
2022/10/31 11:42:39;;;;;;;;;;;;;;;;;;4959089;28;20436;-60
2022/10/31 11:45:12;;;;;;;;;;;;;;;;;;4963550;28;19922;-60
2022/10/31 11:47:40;;;;;;;;;;;;;;;;;;4971723;28;20326;-60
2022/10/31 11:50:18;;;;;;;;;;;;;;;;;;4967615;28;19949;-60
2022/10/31 11:52:43;;;;;;;;;;;;;;;;;;4966912;28;19929;-60
2022/10/31 11:55:11;;;;;;;;;;;;;;;;;;4979938;28;19914;-60
2022/10/31 11:57:44;;;;;;;;;;;;;;;;;;4970850;28;19959;-60
2022/10/31 12:00:21;;;;;;;;;;;;;;;;;;4972698;28;19919;-60
2022/10/31 12:02:46;;;;;;;;;;;;;;;;;;4964075;28;20369;-59
2022/10/31 12:05:23;;;;;;;;;;;;;;;;;;4964357;28;19918;-58
2022/10/31 12:07:49;;;;;;;;;;;;;;;;;;4966713;28;19919;-58
2022/10/31 12:10:14;;;;;;;;;;;;;;;;;;4977228;28;20028;-58
2022/10/31 12:12:51;;;;;;;;;;;;;;;;;;4967837;28;19925;-58
2022/10/31 12:15:26;;;;;;;;;;;;;;;;;;4966621;28;19919;-58
2022/10/31 12:17:54;;;;;;;;;;;;;;;;;;4977444;28;19926;-58
2022/10/31 12:20:34;;;;;;;;;;;;;;;;;;4969240;28;20346;-58
2022/10/31 12:22:59;;;;;;;;;;;;;;;;;;4966936;28;20648;-58
2022/10/31 12:25:34;;;;;;;;;;;;;;;;;;4967796;28;19918;-58
2022/10/31 12:28:02;;;;;;;;;;;;;;;;;;4964102;28;19921;-58
2022/10/31 12:30:32;;;;;;;;;;;;;;;;;;4959808;28;20456;-58
2022/10/31 12:33:16;;;;;;;;;;;;;;;;;;4965600;28;19918;-58
2022/10/31 12:35:51;;;;;;;;;;;;;;;;;;4963404;28;20350;-58
2022/10/31 12:38:25;;;;;;;;;;;;;;;;;;4959480;28;19918;-58
2022/10/31 12:41:00;;;;;;;;;;;;;;;;;;4965885;28;20021;-58
2022/10/31 12:43:34;;;;;;;;;;;;;;;;;;4965316;28;20341;-58
2022/10/31 12:46:00;;;;;;;;;;;;;;;;;;4971592;28;19987;-58
2022/10/31 12:48:44;;;;;;;;;;;;;;;;;;4968649;28;20384;-58
2022/10/31 12:51:15;;;;;;;;;;;;;;;;;;4972166;28;19918;-58
2022/10/31 12:53:40;;;;;;;;;;;;;;;;;;4970359;28;20509;-58
2022/10/31 12:56:25;;;;;;;;;;;;;;;;;;4962969;28;19918;-58
2022/10/31 12:58:50;;;;;;;;;;;;;;;;;;4975323;28;19926;-59
2022/10/31 13:01:17;;;;;;;;;;;;;;;;;;4973850;28;19971;-58
2022/10/31 13:03:52;;;;;;;;;;;;;;;;;;4968476;28;20022;-58
2022/10/31 13:06:19;;;;;;;;;;;;;;;;;;4965990;28;19918;-59
2022/10/31 13:08:53;;;;;;;;;;;;;;;;;;4971716;28;19929;-59
2022/10/31 13:11:21;;;;;;;;;;;;;;;;;;4976422;28;19926;-59
2022/10/31 13:13:50;;;;;;;;;;;;;;;;;;4970694;28;20459;-59
2022/10/31 13:16:16;;;;;;;;;;;;;;;;;;4969491;28;19925;-59
2022/10/31 13:18:54;;;;;;;;;;;;;;;;;;4968491;28;19922;-59
2022/10/31 13:21:26;;;;;;;;;;;;;;;;;;4966783;28;19968;-59
2022/10/31 13:23:52;;;;;;;;;;;;;;;;;;4967746;28;20322;-59
2022/10/31 13:26:37;;;;;;;;;;;;;;;;;;4970581;28;20024;-59
2022/10/31 13:29:18;;;;;;;;;;;;;;;;;;4967253;28;20403;-59
2022/10/31 13:31:43;;;;;;;;;;;;;;;;;;4976205;28;19918;-59
2022/10/31 13:34:14;;;;;;;;;;;;;;;;;;4967507;28;19918;-59
2022/10/31 13:36:43;;;;;;;;;;;;;;;;;;4968903;28;19918;-59
2022/10/31 13:39:23;;;;;;;;;;;;;;;;;;4965949;28;19922;-59
2022/10/31 13:41:52;;;;;;;;;;;;;;;;;;4972514;28;19925;-59
2022/10/31 13:44:25;;;;;;;;;;;;;;;;;;4968557;28;19929;-59
2022/10/31 13:46:51;;;;;;;;;;;;;;;;;;4984419;28;20010;-59
2022/10/31 13:49:23;;;;;;;;;;;;;;;;;;4970989;28;19918;-59
2022/10/31 13:51:48;;;;;;;;;;;;;;;;;;4969411;28;19922;-57
2022/10/31 13:54:31;;;;;;;;;;;;;;;;;;4961256;28;19918;-58
2022/10/31 13:56:56;;;;;;;;;;;;;;;;;;4964299;28;20395;-61
2022/10/31 13:59:23;;;;;;;;;;;;;;;;;;4971053;28;20000;-60
2022/10/31 14:01:50;;;;;;;;;;;;;;;;;;4965707;28;19919;-59
2022/10/31 14:04:20;;;;;;;;;;;;;;;;;;4963885;28;19926;-61
2022/10/31 14:06:46;;;;;;;;;;;;;;;;;;4971727;28;20311;-60
2022/10/31 14:09:30;;;;;;;;;;;;;;;;;;4955744;28;19934;-59
2022/10/31 14:11:56;;;;;;;;;;;;;;;;;;4962166;28;19918;-59
2022/10/31 14:14:23;;;;;;;;;;;;;;;;;;4965578;28;19922;-59
2022/10/31 14:16:53;;;;;;;;;;;;;;;;;;4965180;28;20116;-59
2022/10/31 14:19:21;;;;;;;;;;;;;;;;;;4955686;28;19926;-59
2022/10/31 14:21:50;;;;;;;;;;;;;;;;;;4957359;28;19925;-59
2022/10/31 14:24:24;;;;;;;;;;;;;;;;;;4961862;28;19925;-58
2022/10/31 14:26:52;;;;;;;;;;;;;;;;;;4968393;28;19972;-58
2022/10/31 14:29:17;;;;;;;;;;;;;;;;;;4962984;28;19972;-58
2022/10/31 14:31:44;;;;;;;;;;;;;;;;;;4962401;28;19930;-59
2022/10/31 14:34:24;;;;;;;;;;;;;;;;;;4961907;28;20426;-58
2022/10/31 14:36:52;;;;;;;;;;;;;;;;;;4964706;28;19956;-58
2022/10/31 14:39:24;;;;;;;;;;;;;;;;;;4965222;28;20346;-58
2022/10/31 14:41:52;;;;;;;;;;;;;;;;;;4963491;28;19937;-58
2022/10/31 14:44:32;;;;;;;;;;;;;;;;;;4968137;28;19928;-58
2022/10/31 14:47:00;;;;;;;;;;;;;;;;;;4957729;28;19927;-58
2022/10/31 14:49:25;;;;;;;;;;;;;;;;;;4959656;28;19918;-58
2022/10/31 14:51:51;;;;;;;;;;;;;;;;;;4959816;28;19936;-61
2022/10/31 14:54:37;;;;;;;;;;;;;;;;;;4952366;28;20361;-62
2022/10/31 14:57:04;;;;;;;;;;;;;;;;;;4959444;28;19925;-62
2022/10/31 14:59:31;;;;;;;;;;;;;;;;;;4957315;28;19968;-62
2022/10/31 15:01:58;;;;;;;;;;;;;;;;;;4972342;28;19963;-62
2022/10/31 15:04:25;;;;;;;;;;;;;;;;;;4958837;28;20025;-62
2022/10/31 15:06:53;;;;;;;;;;;;;;;;;;4960642;28;19926;-58
2022/10/31 15:09:22;;;;;;;;;;;;;;;;;;4964761;28;19967;-58
2022/10/31 15:11:47;;;;;;;;;;;;;;;;;;4962711;28;20434;-58
2022/10/31 15:14:29;;;;;;;;;;;;;;;;;;4957726;28;19919;-59
2022/10/31 15:16:56;;;;;;;;;;;;;;;;;;4966478;28;20395;-58
2022/10/31 15:19:24;;;;;;;;;;;;;;;;;;4968872;28;20378;-58
2022/10/31 15:21:50;;;;;;;;;;;;;;;;;;4965386;28;19923;-58
2022/10/31 15:24:18;;;;;;;;;;;;;;;;;;4963197;28;19922;-58
2022/10/31 15:26:45;;;;;;;;;;;;;;;;;;4967204;28;19953;-58
2022/10/31 15:29:12;;;;;;;;;;;;;;;;;;4957416;28;20011;-58
2022/10/31 15:31:37;;;;;;;;;;;;;;;;;;4966652;28;19922;-58
2022/10/31 15:34:12;;;;;;;;;;;;;;;;;;4963004;28;20606;-58
2022/10/31 15:36:37;;;;;;;;;;;;;;;;;;4964076;28;19925;-58
2022/10/31 15:39:03;;;;;;;;;;;;;;;;;;4962698;28;20315;-57
2022/10/31 15:41:31;;;;;;;;;;;;;;;;;;4964890;28;19925;-58
2022/10/31 15:44:00;;;;;;;;;;;;;;;;;;4964525;28;19923;-58
2022/10/31 15:46:27;;;;;;;;;;;;;;;;;;4956503;28;20005;-57
2022/10/31 15:48:52;;;;;;;;;;;;;;;;;;4965959;28;19929;-57
2022/10/31 15:51:24;;;;;;;;;;;;;;;;;;4962367;28;19918;-57
2022/10/31 15:53:51;;;;;;;;;;;;;;;;;;4960402;28;20412;-58
2022/10/31 15:56:21;;;;;;;;;;;;;;;;;;4958194;28;20411;-58
2022/10/31 15:58:48;;;;;;;;;;;;;;;;;;4965248;28;19944;-58
2022/10/31 16:01:27;;;;;;;;;;;;;;;;;;4965387;28;19918;-58
2022/10/31 16:04:00;;;;;;;;;;;;;;;;;;4957158;28;19930;-58
2022/10/31 16:06:26;;;;;;;;;;;;;;;;;;4961980;28;19928;-57
2022/10/31 16:08:51;;;;;;;;;;;;;;;;;;4967481;28;19914;-57
2022/10/31 16:11:30;;;;;;;;;;;;;;;;;;4964913;28;19933;-57
2022/10/31 16:13:57;;;;;;;;;;;;;;;;;;4971293;28;19922;-55
2022/10/31 16:16:23;;;;;;;;;;;;;;;;;;4972137;28;20308;-57
2022/10/31 16:18:49;;;;;;;;;;;;;;;;;;4965911;28;19929;-58
2022/10/31 16:21:15;;;;;;;;;;;;;;;;;;4963235;28;20347;-58
2022/10/31 16:23:44;;;;;;;;;;;;;;;;;;4969491;28;19922;-58
2022/10/31 16:26:13;;;;;;;;;;;;;;;;;;4974648;28;19969;-59
2022/10/31 16:28:39;;;;;;;;;;;;;;;;;;4969961;28;19970;-58
2022/10/31 16:31:12;;;;;;;;;;;;;;;;;;4961032;28;20423;-58
2022/10/31 16:33:40;;;;;;;;;;;;;;;;;;4971184;28;20007;-60
2022/10/31 16:36:24;;;;;;;;;;;;;;;;;;4960276;28;19933;-58
2022/10/31 16:38:49;;;;;;;;;;;;;;;;;;4964594;28;19922;-58
2022/10/31 16:41:14;;;;;;;;;;;;;;;;;;4964575;28;19941;-58
2022/10/31 16:43:39;;;;;;;;;;;;;;;;;;4971089;28;19928;-59
2022/10/31 16:46:05;;;;;;;;;;;;;;;;;;4968531;28;20438;-59
2022/10/31 16:48:30;;;;;;;;;;;;;;;;;;4966012;28;19925;-59
2022/10/31 16:50:55;;;;;;;;;;;;;;;;;;4967226;28;19925;-59
2022/10/31 16:53:21;;;;;;;;;;;;;;;;;;4971789;28;20403;-59
2022/10/31 16:55:50;;;;;;;;;;;;;;;;;;4966955;28;19918;-59
2022/10/31 16:58:17;;;;;;;;;;;;;;;;;;4968420;28;20379;-57